National Weather Service Raw Text Product

Displaying AFOS PIL: TAFFOD Received: 2018-01-03 15:19 UTC


765 
FTUS43 KDMX 031519 AAA
TAFFOD
TAF AMD
KFOD 031519Z 0315/0412 32010G15KT P6SM SKC
     FM032200 33012KT P6SM FEW250
     FM040200 32007KT P6SM FEW250=